Time;durP1;ratioP1;P1;durP2;ratioP2;P2;SDS_P1;SDS_P2;PMS_P1;PMS_P2;Temp;Humidity;BMP_temperature;BMP_pressure;BME280_temperature;BME280_humidity;BME280_pressure;Samples;Min_cycle;Max_cycle;Signal;HPM_P1;HPM_P2
2020/06/10 00:11:27;;;;;;;46.1;30.6;;;;;;;12.85;100;94817.21;;;;
2020/06/10 00:12:36;;;;;;;46.1;30.6;;;;;;;12.85;100;94817.21;;;;
2020/06/10 00:13:46;;;;;;;46.1;30.6;;;;;;;12.85;100;94817.21;;;;
2020/06/10 00:14:52;;;;;;;46.1;30.6;;;;;;;12.85;100;94817.21;;;;
2020/06/10 00:16:15;;;;;;;46.1;30.6;;;;;;;12.85;100;94817.21;;;;
2020/06/10 00:22:39;;;;;;;43.1;30.05;;;;;;;12.81;100;94814.61;;;;
2020/06/10 00:24:53;;;;;;;43.1;30.05;;;;;;;12.81;100;94814.61;;;;
2020/06/10 00:26:07;;;;;;;43.1;30.05;;;;;;;12.81;100;94814.61;;;;
2020/06/10 00:27:30;;;;;;;43.1;30.05;;;;;;;12.81;100;94814.61;;;;
2020/06/10 00:33:54;;;;;;;44.15;28.3;;;;;;;12.84;100;94808.65;;;;
2020/06/10 00:40:15;;;;;;;44.15;28.3;;;;;;;12.84;100;94808.65;;;;
2020/06/10 00:41:25;;;;;;;38.5;26;;;;;;;12.81;100;94805.28;;;;
2020/06/10 00:42:32;;;;;;;38.5;26;;;;;;;12.81;100;94805.28;;;;
2020/06/10 00:43:56;;;;;;;38.5;26;;;;;;;12.81;100;94805.28;;;;
2020/06/10 00:45:03;;;;;;;38.5;26;;;;;;;12.81;100;94805.28;;;;
2020/06/10 00:46:14;;;;;;;38.5;26;;;;;;;12.81;100;94805.28;;;;
2020/06/10 00:53:00;;;;;;;31.8;21.65;;;;;;;12.85;100;94796.88;;;;
2020/06/10 00:54:07;;;;;;;31.8;21.65;;;;;;;12.85;100;94796.88;;;;
2020/06/10 00:55:14;;;;;;;31.8;21.65;;;;;;;12.85;100;94796.88;;;;
2020/06/10 00:56:25;;;;;;;31.8;21.65;;;;;;;12.85;100;94796.88;;;;
2020/06/10 00:57:38;;;;;;;31.8;21.65;;;;;;;12.85;100;94796.88;;;;
2020/06/10 00:58:46;;;;;;;31.8;21.65;;;;;;;12.85;100;94796.88;;;;
2020/06/10 00:59:54;;;;;;;31.8;21.65;;;;;;;12.85;100;94796.88;;;;
2020/06/10 01:06:21;;;;;;;27.85;20.7;;;;;;;12.8;100;94785.49;;;;
2020/06/10 01:07:30;;;;;;;27.85;20.7;;;;;;;12.8;100;94785.49;;;;
2020/06/10 01:08:40;;;;;;;27.85;20.7;;;;;;;12.8;100;94785.49;;;;
2020/06/10 01:09:48;;;;;;;27.85;20.7;;;;;;;12.8;100;94785.49;;;;
2020/06/10 01:10:57;;;;;;;27.85;20.7;;;;;;;12.8;100;94785.49;;;;
2020/06/10 01:12:12;;;;;;;27.85;20.7;;;;;;;12.8;100;94785.49;;;;
2020/06/10 01:13:18;;;;;;;27.1;21.45;;;;;;;12.83;100;94786.31;;;;
2020/06/10 01:19:36;;;;;;;27.1;21.45;;;;;;;12.83;100;94786.31;;;;
2020/06/10 01:21:13;;;;;;;27.1;21.45;;;;;;;12.83;100;94786.31;;;;
2020/06/10 01:22:18;;;;;;;27.1;21.45;;;;;;;12.83;100;94786.31;;;;
2020/06/10 01:24:29;;;;;;;30.4;23.15;;;;;;;12.8;100;94777.89;;;;
2020/06/10 01:25:34;;;;;;;30.4;23.15;;;;;;;12.8;100;94777.89;;;;
2020/06/10 01:32:15;;;;;;;30.4;23.15;;;;;;;12.8;100;94777.89;;;;
2020/06/10 01:33:20;;;;;;;30.4;23.15;;;;;;;12.8;100;94777.89;;;;
2020/06/10 01:34:20;;;;;;;36.4;25.7;;;;;;;12.83;100;94777.23;;;;
2020/06/10 01:35:26;;;;;;;36.4;25.7;;;;;;;12.83;100;94777.23;;;;
2020/06/10 01:36:33;;;;;;;36.4;25.7;;;;;;;12.83;100;94777.23;;;;
2020/06/10 01:37:42;;;;;;;36.4;25.7;;;;;;;12.83;100;94777.23;;;;
2020/06/10 01:38:57;;;;;;;36.4;25.7;;;;;;;12.83;100;94777.23;;;;
2020/06/10 01:40:38;;;;;;;36.4;25.7;;;;;;;12.83;100;94777.23;;;;
2020/06/10 01:41:47;;;;;;;36.4;25.7;;;;;;;12.83;100;94777.23;;;;
2020/06/10 01:48:08;;;;;;;37.8;27.25;;;;;;;12.82;100;94774.27;;;;
2020/06/10 01:49:23;;;;;;;37.8;27.25;;;;;;;12.82;100;94774.27;;;;
2020/06/10 01:50:31;;;;;;;37.8;27.25;;;;;;;12.82;100;94774.27;;;;
2020/06/10 01:51:38;;;;;;;37.8;27.25;;;;;;;12.82;100;94774.27;;;;
2020/06/10 01:52:49;;;;;;;37.8;27.25;;;;;;;12.82;100;94774.27;;;;
2020/06/10 01:53:57;;;;;;;37.8;27.25;;;;;;;12.82;100;94774.27;;;;
2020/06/10 01:55:06;;;;;;;44.45;31.35;;;;;;;12.85;100;94765.61;;;;
2020/06/10 01:56:20;;;;;;;44.45;31.35;;;;;;;12.85;100;94765.61;;;;
2020/06/10 01:57:26;;;;;;;44.45;31.35;;;;;;;12.85;100;94765.61;;;;
2020/06/10 01:58:41;;;;;;;44.45;31.35;;;;;;;12.85;100;94765.61;;;;
2020/06/10 01:59:52;;;;;;;44.45;31.35;;;;;;;12.85;100;94765.61;;;;
2020/06/10 02:06:15;;;;;;;49.90001;34.05;;;;;;;12.81;100;94762.31;;;;
2020/06/10 02:07:30;;;;;;;49.90001;34.05;;;;;;;12.81;100;94762.31;;;;
2020/06/10 02:08:34;;;;;;;49.90001;34.05;;;;;;;12.81;100;94762.31;;;;
2020/06/10 02:09:46;;;;;;;49.90001;34.05;;;;;;;12.81;100;94762.31;;;;
2020/06/10 02:11:27;;;;;;;49.90001;34.05;;;;;;;12.81;100;94762.31;;;;
2020/06/10 02:17:33;;;;;;;43.05;32.55;;;;;;;12.83;100;94755.69;;;;
2020/06/10 02:18:37;;;;;;;43.05;32.55;;;;;;;12.83;100;94755.69;;;;
2020/06/10 02:19:38;;;;;;;43.05;32.55;;;;;;;12.83;100;94755.69;;;;
2020/06/10 02:20:42;;;;;;;43.05;32.55;;;;;;;12.83;100;94755.69;;;;
2020/06/10 02:21:49;;;;;;;43.05;32.55;;;;;;;12.83;100;94755.69;;;;
2020/06/10 02:22:51;;;;;;;43.05;32.55;;;;;;;12.83;100;94755.69;;;;
2020/06/10 02:23:52;;;;;;;43.05;32.55;;;;;;;12.83;100;94755.69;;;;
2020/06/10 02:24:52;;;;;;;43.05;32.55;;;;;;;12.83;100;94755.69;;;;
2020/06/10 02:25:53;;;;;;;43.05;32.55;;;;;;;12.83;100;94755.69;;;;
2020/06/10 02:27:03;;;;;;;45.2;33.8;;;;;;;12.76;100;94741.03;;;;
2020/06/10 02:28:25;;;;;;;45.2;33.8;;;;;;;12.76;100;94741.03;;;;
2020/06/10 02:29:27;;;;;;;45.2;33.8;;;;;;;12.76;100;94741.03;;;;
2020/06/10 02:30:35;;;;;;;45.2;33.8;;;;;;;12.76;100;94741.03;;;;
2020/06/10 02:31:43;;;;;;;45.2;33.8;;;;;;;12.76;100;94741.03;;;;
2020/06/10 02:32:50;;;;;;;45.2;33.8;;;;;;;12.76;100;94741.03;;;;
2020/06/10 02:33:56;;;;;;;45.2;33.8;;;;;;;12.76;100;94741.03;;;;
2020/06/10 02:34:56;;;;;;;45.2;33.8;;;;;;;12.76;100;94741.03;;;;
2020/06/10 02:35:58;;;;;;;45.2;33.8;;;;;;;12.76;100;94741.03;;;;
2020/06/10 02:37:03;;;;;;;45.2;33.8;;;;;;;12.76;100;94741.03;;;;
2020/06/10 02:38:07;;;;;;;48.99999;34.44999;;;;;;;12.76;100;94749.16;;;;
2020/06/10 02:39:13;;;;;;;48.99999;34.44999;;;;;;;12.76;100;94749.16;;;;
2020/06/10 02:40:19;;;;;;;48.99999;34.44999;;;;;;;12.76;100;94749.16;;;;
2020/06/10 02:41:20;;;;;;;48.99999;34.44999;;;;;;;12.76;100;94749.16;;;;
2020/06/10 02:42:23;;;;;;;48.99999;34.44999;;;;;;;12.76;100;94749.16;;;;
2020/06/10 02:43:24;;;;;;;48.99999;34.44999;;;;;;;12.76;100;94749.16;;;;
2020/06/10 02:44:29;;;;;;;48.99999;34.44999;;;;;;;12.76;100;94749.16;;;;
2020/06/10 02:45:43;;;;;;;48.99999;34.44999;;;;;;;12.76;100;94749.16;;;;
2020/06/10 02:47:56;;;;;;;48.99999;34.44999;;;;;;;12.76;100;94749.16;;;;
2020/06/10 02:49:04;;;;;;;49.8;35.05;;;;;;;12.65;100;94746.66;;;;
2020/06/10 02:50:28;;;;;;;49.8;35.05;;;;;;;12.65;100;94746.66;;;;
2020/06/10 02:51:39;;;;;;;49.8;35.05;;;;;;;12.65;100;94746.66;;;;
2020/06/10 02:52:48;;;;;;;49.8;35.05;;;;;;;12.65;100;94746.66;;;;
2020/06/10 02:53:57;;;;;;;49.8;35.05;;;;;;;12.65;100;94746.66;;;;
2020/06/10 02:55:08;;;;;;;49.8;35.05;;;;;;;12.65;100;94746.66;;;;
2020/06/10 02:56:17;;;;;;;49.8;35.05;;;;;;;12.65;100;94746.66;;;;
2020/06/10 02:57:33;;;;;;;49.8;35.05;;;;;;;12.65;100;94746.66;;;;
2020/06/10 02:59:01;;;;;;;50.05001;35.7;;;;;;;12.61;100;94746.34;;;;
2020/06/10 03:00:09;;;;;;;50.05001;35.7;;;;;;;12.61;100;94746.34;;;;
2020/06/10 03:06:45;;;;;;;50.05001;35.7;;;;;;;12.61;100;94746.34;;;;
2020/06/10 03:07:54;;;;;;;50.05001;35.7;;;;;;;12.61;100;94746.34;;;;
2020/06/10 03:09:04;;;;;;;50.05001;35.7;;;;;;;12.61;100;94746.34;;;;
2020/06/10 03:10:20;;;;;;;53.9;37.55;;;;;;;12.57;100;94744.7;;;;
2020/06/10 03:11:29;;;;;;;53.9;37.55;;;;;;;12.57;100;94744.7;;;;
2020/06/10 03:17:53;;;;;;;53.9;37.55;;;;;;;12.57;100;94744.7;;;;
2020/06/10 03:19:10;;;;;;;53.9;37.55;;;;;;;12.57;100;94744.7;;;;
2020/06/10 03:20:12;;;;;;;49.29999;35.7;;;;;;;12.6;100;94741.49;;;;
2020/06/10 03:21:14;;;;;;;49.29999;35.7;;;;;;;12.6;100;94741.49;;;;
2020/06/10 03:22:16;;;;;;;49.29999;35.7;;;;;;;12.6;100;94741.49;;;;
2020/06/10 03:23:18;;;;;;;49.29999;35.7;;;;;;;12.6;100;94741.49;;;;
2020/06/10 03:24:20;;;;;;;49.29999;35.7;;;;;;;12.6;100;94741.49;;;;
2020/06/10 03:25:22;;;;;;;49.29999;35.7;;;;;;;12.6;100;94741.49;;;;
2020/06/10 03:26:24;;;;;;;49.29999;35.7;;;;;;;12.6;100;94741.49;;;;
2020/06/10 03:27:27;;;;;;;49.29999;35.7;;;;;;;12.6;100;94741.49;;;;
2020/06/10 03:28:29;;;;;;;49.29999;35.7;;;;;;;12.6;100;94741.49;;;;
2020/06/10 03:29:41;;;;;;;49.29999;35.7;;;;;;;12.6;100;94741.49;;;;
2020/06/10 03:31:05;;;;;;;46.39999;34.45;;;;;;;12.58;100;94743.22;;;;
2020/06/10 03:32:14;;;;;;;46.39999;34.45;;;;;;;12.58;100;94743.22;;;;
2020/06/10 03:33:20;;;;;;;46.39999;34.45;;;;;;;12.58;100;94743.22;;;;
2020/06/10 03:39:46;;;;;;;46.39999;34.45;;;;;;;12.58;100;94743.22;;;;
2020/06/10 03:42:01;;;;;;;46.39999;34.45;;;;;;;12.58;100;94743.22;;;;
2020/06/10 03:48:23;;;;;;;46.9;33.95;;;;;;;12.67;100;94753.96;;;;
2020/06/10 03:49:32;;;;;;;46.9;33.95;;;;;;;12.67;100;94753.96;;;;
2020/06/10 03:50:46;;;;;;;46.9;33.95;;;;;;;12.67;100;94753.96;;;;
2020/06/10 03:52:24;;;;;;;47.25;34.4;;;;;;;12.68;100;94748.85;;;;
2020/06/10 03:53:31;;;;;;;47.25;34.4;;;;;;;12.68;100;94748.85;;;;
2020/06/10 03:59:54;;;;;;;47.25;34.4;;;;;;;12.68;100;94748.85;;;;
2020/06/10 04:06:14;;;;;;;43.34999;32.60001;;;;;;;12.76;100;94754.16;;;;
2020/06/10 04:12:37;;;;;;;43.34999;32.60001;;;;;;;12.76;100;94754.16;;;;
2020/06/10 04:13:47;;;;;;;47;33.35;;;;;;;12.78;100;94755.55;;;;
2020/06/10 04:20:09;;;;;;;47;33.35;;;;;;;12.78;100;94755.55;;;;
2020/06/10 04:21:26;;;;;;;47;33.35;;;;;;;12.78;100;94755.55;;;;
2020/06/10 04:22:45;;;;;;;47;33.35;;;;;;;12.78;100;94755.55;;;;
2020/06/10 04:24:01;;;;;;;51.55;34.04999;;;;;;;12.9;100;94760.36;;;;
2020/06/10 04:25:22;;;;;;;51.55;34.04999;;;;;;;12.9;100;94760.36;;;;
2020/06/10 04:31:49;;;;;;;51.55;34.04999;;;;;;;12.9;100;94760.36;;;;
2020/06/10 04:33:03;;;;;;;51.55;34.04999;;;;;;;12.9;100;94760.36;;;;
2020/06/10 04:34:10;;;;;;;56.45;35.25;;;;;;;12.98;100;94757.01;;;;
2020/06/10 04:35:36;;;;;;;56.45;35.25;;;;;;;12.98;100;94757.01;;;;
2020/06/10 04:36:43;;;;;;;56.45;35.25;;;;;;;12.98;100;94757.01;;;;
2020/06/10 04:37:55;;;;;;;56.45;35.25;;;;;;;12.98;100;94757.01;;;;
2020/06/10 04:44:21;;;;;;;56.45;35.25;;;;;;;12.98;100;94757.01;;;;
2020/06/10 04:45:31;;;;;;;50.05;33.05;;;;;;;13.24;100;94743.45;;;;
2020/06/10 04:51:52;;;;;;;50.05;33.05;;;;;;;13.24;100;94743.45;;;;
2020/06/10 04:53:35;;;;;;;50.05;33.05;;;;;;;13.24;100;94743.45;;;;
2020/06/10 05:00:10;;;;;;;41.05001;30.25;;;;;;;13.51;100;94746.95;;;;
2020/06/10 05:01:54;;;;;;;41.05001;30.25;;;;;;;13.51;100;94746.95;;;;
2020/06/10 05:03:02;;;;;;;41.05001;30.25;;;;;;;13.51;100;94746.95;;;;
2020/06/10 05:04:09;;;;;;;41.05001;30.25;;;;;;;13.51;100;94746.95;;;;
2020/06/10 05:10:28;;;;;;;51.65;32.9;;;;;;;13.77;100;94747.27;;;;
2020/06/10 05:17:48;;;;;;;39.25;30.05;;;;;;;13.99;100;94746.5;;;;
2020/06/10 05:19:13;;;;;;;39.25;30.05;;;;;;;13.99;100;94746.5;;;;
2020/06/10 05:21:29;;;;;;;39.25;30.05;;;;;;;13.99;100;94746.5;;;;
2020/06/10 05:22:49;;;;;;;39.25;30.05;;;;;;;13.99;100;94746.5;;;;
2020/06/10 05:25:05;;;;;;;39.25;30.05;;;;;;;13.99;100;94746.5;;;;
2020/06/10 05:26:15;;;;;;;39.25;30.05;;;;;;;13.99;100;94746.5;;;;
2020/06/10 05:27:56;;;;;;;33.3;26.95;;;;;;;14.46;100;94756.19;;;;
2020/06/10 05:29:07;;;;;;;33.3;26.95;;;;;;;14.46;100;94756.19;;;;
2020/06/10 05:30:22;;;;;;;33.3;26.95;;;;;;;14.46;100;94756.19;;;;
2020/06/10 05:31:46;;;;;;;33.3;26.95;;;;;;;14.46;100;94756.19;;;;
2020/06/10 05:32:54;;;;;;;33.3;26.95;;;;;;;14.46;100;94756.19;;;;
2020/06/10 05:34:05;;;;;;;33.3;26.95;;;;;;;14.46;100;94756.19;;;;
2020/06/10 05:35:14;;;;;;;33.3;26.95;;;;;;;14.46;100;94756.19;;;;
2020/06/10 05:36:26;;;;;;;33.3;26.95;;;;;;;14.46;100;94756.19;;;;
2020/06/10 05:42:46;;;;;;;29.6;23.65;;;;;;;14.66;100;94746.26;;;;
2020/06/10 05:43:54;;;;;;;29.6;23.65;;;;;;;14.66;100;94746.26;;;;
2020/06/10 05:45:00;;;;;;;29.6;23.65;;;;;;;14.66;100;94746.26;;;;
2020/06/10 05:46:09;;;;;;;29.6;23.65;;;;;;;14.66;100;94746.26;;;;
2020/06/10 05:52:48;;;;;;;31.95;25.8;;;;;;;14.71;100;94740.8;;;;
2020/06/10 05:53:56;;;;;;;31.95;25.8;;;;;;;14.71;100;94740.8;;;;
2020/06/10 05:55:07;;;;;;;31.95;25.8;;;;;;;14.71;100;94740.8;;;;
2020/06/10 05:56:15;;;;;;;31.95;25.8;;;;;;;14.71;100;94740.8;;;;
2020/06/10 05:58:26;;;;;;;31.95;25.8;;;;;;;14.71;100;94740.8;;;;
2020/06/10 05:59:41;;;;;;;15.6;14.05;;;;;;;14.58;100;94743.13;;;;
2020/06/10 06:11:13;;;;;;;12.9;11.6;;;;;;;14.59;100;94741.08;;;;
2020/06/10 06:12:38;;;;;;;12.9;11.6;;;;;;;14.59;100;94741.08;;;;
2020/06/10 06:13:52;;;;;;;12.9;11.6;;;;;;;14.59;100;94741.08;;;;
2020/06/10 06:14:56;;;;;;;12.9;11.6;;;;;;;14.59;100;94741.08;;;;
2020/06/10 06:16:00;;;;;;;12.9;11.6;;;;;;;14.59;100;94741.08;;;;
2020/06/10 06:17:07;;;;;;;12.9;11.6;;;;;;;14.59;100;94741.08;;;;
2020/06/10 06:18:16;;;;;;;12.9;11.6;;;;;;;14.59;100;94741.08;;;;
2020/06/10 06:19:24;;;;;;;12.9;11.6;;;;;;;14.59;100;94741.08;;;;
2020/06/10 06:20:39;;;;;;;14.45;13;;;;;;;14.64;100;94735.63;;;;
2020/06/10 06:21:56;;;;;;;14.45;13;;;;;;;14.64;100;94735.63;;;;
2020/06/10 06:23:02;;;;;;;14.45;13;;;;;;;14.64;100;94735.63;;;;
2020/06/10 06:29:08;;;;;;;14.45;13;;;;;;;14.64;100;94735.63;;;;
2020/06/10 06:30:48;;;;;;;14.45;13;;;;;;;14.64;100;94735.63;;;;
2020/06/10 06:31:58;;;;;;;20.05;17.55;;;;;;;14.87;100;94723.79;;;;
2020/06/10 06:33:06;;;;;;;20.05;17.55;;;;;;;14.87;100;94723.79;;;;
2020/06/10 06:34:13;;;;;;;20.05;17.55;;;;;;;14.87;100;94723.79;;;;
2020/06/10 06:40:50;;;;;;;20.05;17.55;;;;;;;14.87;100;94723.79;;;;
2020/06/10 06:42:17;;;;;;;20.35;18.2;;;;;;;15.21;100;94732.51;;;;
2020/06/10 06:43:29;;;;;;;20.35;18.2;;;;;;;15.21;100;94732.51;;;;
2020/06/10 06:44:40;;;;;;;20.35;18.2;;;;;;;15.21;100;94732.51;;;;
2020/06/10 06:45:48;;;;;;;20.35;18.2;;;;;;;15.21;100;94732.51;;;;
2020/06/10 06:48:32;;;;;;;20.35;18.2;;;;;;;15.21;100;94732.51;;;;
2020/06/10 06:49:42;;;;;;;20.35;18.2;;;;;;;15.21;100;94732.51;;;;
2020/06/10 06:50:51;;;;;;;20.35;18.2;;;;;;;15.21;100;94732.51;;;;
2020/06/10 06:52:07;;;;;;;20.35;18.2;;;;;;;15.21;100;94732.51;;;;
2020/06/10 06:58:40;;;;;;;22.65;20.2;;;;;;;15.33;100;94730.84;;;;
2020/06/10 06:59:57;;;;;;;22.65;20.2;;;;;;;15.33;100;94730.84;;;;
2020/06/10 07:06:17;;;;;;;21.8;18.25;;;;;;;15.47;100;94733.67;;;;
2020/06/10 07:07:27;;;;;;;21.8;18.25;;;;;;;15.47;100;94733.67;;;;
2020/06/10 07:08:39;;;;;;;21.8;18.25;;;;;;;15.47;100;94733.67;;;;
2020/06/10 07:09:48;;;;;;;21.8;18.25;;;;;;;15.47;100;94733.67;;;;
2020/06/10 07:12:01;;;;;;;21.8;18.25;;;;;;;15.47;100;94733.67;;;;
2020/06/10 07:13:07;;;;;;;21.8;18.25;;;;;;;15.47;100;94733.67;;;;
2020/06/10 07:19:25;;;;;;;21.05;18.75;;;;;;;15.59;100;94737.81;;;;
2020/06/10 07:21:40;;;;;;;21.05;18.75;;;;;;;15.59;100;94737.81;;;;
2020/06/10 07:22:51;;;;;;;21.05;18.75;;;;;;;15.59;100;94737.81;;;;
2020/06/10 07:24:02;;;;;;;19.6;17.6;;;;;;;15.57;100;94753.48;;;;
2020/06/10 07:25:12;;;;;;;19.6;17.6;;;;;;;15.57;100;94753.48;;;;
2020/06/10 07:26:20;;;;;;;19.6;17.6;;;;;;;15.57;100;94753.48;;;;
2020/06/10 07:27:31;;;;;;;19.6;17.6;;;;;;;15.57;100;94753.48;;;;
2020/06/10 07:33:52;;;;;;;19.6;17.6;;;;;;;15.57;100;94753.48;;;;
2020/06/10 07:34:58;;;;;;;20.85;18.55;;;;;;;15.34;100;94757.76;;;;
2020/06/10 07:36:07;;;;;;;20.85;18.55;;;;;;;15.34;100;94757.76;;;;
2020/06/10 07:37:48;;;;;;;20.85;18.55;;;;;;;15.34;100;94757.76;;;;
2020/06/10 07:38:58;;;;;;;20.85;18.55;;;;;;;15.34;100;94757.76;;;;
2020/06/10 07:46:34;;;;;;;21;18.75;;;;;;;15.25;100;94753.17;;;;
2020/06/10 07:47:45;;;;;;;21;18.75;;;;;;;15.25;100;94753.17;;;;
2020/06/10 07:48:52;;;;;;;21;18.75;;;;;;;15.25;100;94753.17;;;;
2020/06/10 07:50:02;;;;;;;21;18.75;;;;;;;15.25;100;94753.17;;;;
2020/06/10 07:51:12;;;;;;;21;18.75;;;;;;;15.25;100;94753.17;;;;
2020/06/10 07:52:18;;;;;;;21;18.75;;;;;;;15.25;100;94753.17;;;;
2020/06/10 07:53:23;;;;;;;21;18.75;;;;;;;15.25;100;94753.17;;;;
2020/06/10 07:55:04;;;;;;;21;18.75;;;;;;;15.25;100;94753.17;;;;
2020/06/10 07:56:13;;;;;;;20.1;17.85;;;;;;;15.25;100;94754.52;;;;
2020/06/10 07:57:23;;;;;;;20.1;17.85;;;;;;;15.25;100;94754.52;;;;
2020/06/10 07:58:48;;;;;;;20.1;17.85;;;;;;;15.25;100;94754.52;;;;
2020/06/10 07:59:56;;;;;;;20.1;17.85;;;;;;;15.25;100;94754.52;;;;
2020/06/10 08:06:15;;;;;;;20.1;17.85;;;;;;;15.25;100;94754.52;;;;
2020/06/10 08:07:24;;;;;;;20.35;17.4;;;;;;;15.25;100;94754.4;;;;
2020/06/10 08:08:34;;;;;;;20.35;17.4;;;;;;;15.25;100;94754.4;;;;
2020/06/10 08:09:42;;;;;;;20.35;17.4;;;;;;;15.25;100;94754.4;;;;
2020/06/10 08:10:49;;;;;;;20.35;17.4;;;;;;;15.25;100;94754.4;;;;
2020/06/10 08:11:56;;;;;;;20.35;17.4;;;;;;;15.25;100;94754.4;;;;
2020/06/10 08:18:18;;;;;;;17.2;15.5;;;;;;;15.56;100;94756.48;;;;
2020/06/10 08:19:30;;;;;;;17.2;15.5;;;;;;;15.56;100;94756.48;;;;
2020/06/10 08:21:10;;;;;;;17.2;15.5;;;;;;;15.56;100;94756.48;;;;
2020/06/10 08:32:41;;;;;;;16.05;14.45;;;;;;;15.76;100;94755.41;;;;
2020/06/10 08:33:50;;;;;;;16.05;14.45;;;;;;;15.76;100;94755.41;;;;
2020/06/10 08:34:54;;;;;;;16.05;14.45;;;;;;;15.76;100;94755.41;;;;
2020/06/10 08:36:07;;;;;;;16.05;14.45;;;;;;;15.76;100;94755.41;;;;
2020/06/10 08:37:19;;;;;;;16.05;14.45;;;;;;;15.76;100;94755.41;;;;
2020/06/10 08:38:28;;;;;;;19.25;17.25;;;;;;;16.14;100;94756.11;;;;
2020/06/10 08:39:44;;;;;;;19.25;17.25;;;;;;;16.14;100;94756.11;;;;
2020/06/10 08:40:53;;;;;;;19.25;17.25;;;;;;;16.14;100;94756.11;;;;
2020/06/10 08:42:10;;;;;;;19.25;17.25;;;;;;;16.14;100;94756.11;;;;
2020/06/10 08:51:45;;;;;;;17.15;15.45;;;;;;;16.21;100;94756.48;;;;
2020/06/10 08:52:56;;;;;;;17.15;15.45;;;;;;;16.21;100;94756.48;;;;
2020/06/10 08:54:08;;;;;;;17.15;15.45;;;;;;;16.21;100;94756.48;;;;
2020/06/10 08:55:24;;;;;;;17.15;15.45;;;;;;;16.21;100;94756.48;;;;
2020/06/10 08:56:32;;;;;;;17.15;15.45;;;;;;;16.21;100;94756.48;;;;
2020/06/10 08:57:41;;;;;;;17.15;15.45;;;;;;;16.21;100;94756.48;;;;
2020/06/10 08:58:55;;;;;;;17.15;15.45;;;;;;;16.21;100;94756.48;;;;
2020/06/10 09:00:06;;;;;;;19.9;17.9;;;;;;;16.14;100;94746.58;;;;
2020/06/10 09:01:33;;;;;;;19.9;17.9;;;;;;;16.14;100;94746.58;;;;
2020/06/10 09:03:48;;;;;;;19.9;17.9;;;;;;;16.14;100;94746.58;;;;
2020/06/10 09:04:57;;;;;;;19.9;17.9;;;;;;;16.14;100;94746.58;;;;
2020/06/10 09:06:07;;;;;;;19.9;17.9;;;;;;;16.14;100;94746.58;;;;
2020/06/10 09:07:18;;;;;;;19.9;17.9;;;;;;;16.14;100;94746.58;;;;
2020/06/10 09:08:55;;;;;;;19.9;17.9;;;;;;;16.14;100;94746.58;;;;
2020/06/10 09:15:20;;;;;;;20.55;18.5;;;;;;;16.19;100;94750.5;;;;
2020/06/10 09:16:32;;;;;;;20.55;18.5;;;;;;;16.19;100;94750.5;;;;
2020/06/10 09:17:42;;;;;;;20.55;18.5;;;;;;;16.19;100;94750.5;;;;
2020/06/10 09:24:38;;;;;;;19;17.15;;;;;;;16.46;100;94734.06;;;;
2020/06/10 09:25:54;;;;;;;19;17.15;;;;;;;16.46;100;94734.06;;;;
2020/06/10 09:27:02;;;;;;;19;17.15;;;;;;;16.46;100;94734.06;;;;
2020/06/10 09:28:09;;;;;;;19;17.15;;;;;;;16.46;100;94734.06;;;;
2020/06/10 09:29:10;;;;;;;19;17.15;;;;;;;16.46;100;94734.06;;;;
2020/06/10 09:45:57;;;;;;;19.2;17.25;;;;;;;16.66;100;94728.06;;;;
2020/06/10 09:48:01;;;;;;;19.2;17.25;;;;;;;16.66;100;94728.06;;;;
2020/06/10 09:54:33;;;;;;;19.25;17.3;;;;;;;16.61;100;94720.89;;;;
2020/06/10 09:56:46;;;;;;;19.25;17.3;;;;;;;16.61;100;94720.89;;;;
2020/06/10 09:58:31;;;;;;;19.25;17.3;;;;;;;16.61;100;94720.89;;;;
2020/06/10 09:59:40;;;;;;;19.25;17.3;;;;;;;16.61;100;94720.89;;;;
2020/06/10 10:11:57;;;;;;;22.35;19.95;;;;;;;16.56;100;94716.44;;;;
2020/06/10 10:13:21;;;;;;;22.35;19.95;;;;;;;16.56;100;94716.44;;;;
2020/06/10 10:19:44;;;;;;;24.1;21.65;;;;;;;16.26;100;94702.11;;;;
2020/06/10 10:21:25;;;;;;;24.1;21.65;;;;;;;16.26;100;94702.11;;;;
2020/06/10 10:22:33;;;;;;;24.1;21.65;;;;;;;16.26;100;94702.11;;;;
2020/06/10 10:28:40;;;;;;;24.9;21.3;;;;;;;16.7;100;94694.09;;;;
2020/06/10 10:29:47;;;;;;;24.9;21.3;;;;;;;16.7;100;94694.09;;;;
2020/06/10 10:31:00;;;;;;;24.9;21.3;;;;;;;16.7;100;94694.09;;;;
2020/06/10 10:33:13;;;;;;;24.9;21.3;;;;;;;16.7;100;94694.09;;;;
2020/06/10 10:34:31;;;;;;;24.9;21.3;;;;;;;16.7;100;94694.09;;;;
2020/06/10 10:35:41;;;;;;;21.85;19.7;;;;;;;17.4;100;94699.28;;;;
2020/06/10 10:36:51;;;;;;;21.85;19.7;;;;;;;17.4;100;94699.28;;;;
2020/06/10 10:37:59;;;;;;;21.85;19.7;;;;;;;17.4;100;94699.28;;;;
2020/06/10 10:39:10;;;;;;;21.85;19.7;;;;;;;17.4;100;94699.28;;;;
2020/06/10 10:40:21;;;;;;;21.85;19.7;;;;;;;17.4;100;94699.28;;;;
2020/06/10 10:41:34;;;;;;;21.85;19.7;;;;;;;17.4;100;94699.28;;;;
2020/06/10 10:42:43;;;;;;;21.85;19.7;;;;;;;17.4;100;94699.28;;;;
2020/06/10 10:43:51;;;;;;;21.85;19.7;;;;;;;17.4;100;94699.28;;;;
2020/06/10 10:44:59;;;;;;;21.85;19.7;;;;;;;17.4;100;94699.28;;;;
2020/06/10 10:46:10;;;;;;;19.7;17.6;;;;;;;18.22;100;94695.7;;;;
2020/06/10 10:47:17;;;;;;;19.7;17.6;;;;;;;18.22;100;94695.7;;;;
2020/06/10 10:48:26;;;;;;;19.7;17.6;;;;;;;18.22;100;94695.7;;;;
2020/06/10 10:49:48;;;;;;;19.7;17.6;;;;;;;18.22;100;94695.7;;;;
2020/06/10 10:51:57;;;;;;;19.7;17.6;;;;;;;18.22;100;94695.7;;;;
2020/06/10 10:53:04;;;;;;;19.7;17.6;;;;;;;18.22;100;94695.7;;;;
2020/06/10 10:54:44;;;;;;;19.7;17.6;;;;;;;18.22;100;94695.7;;;;
2020/06/10 10:55:54;;;;;;;19.7;17.6;;;;;;;18.22;100;94695.7;;;;
2020/06/10 10:58:01;;;;;;;20.1;18.1;;;;;;;17.96;100;94690.75;;;;
2020/06/10 10:59:13;;;;;;;20.1;18.1;;;;;;;17.96;100;94690.75;;;;
2020/06/10 11:05:34;;;;;;;20.1;18.1;;;;;;;17.96;100;94690.75;;;;
2020/06/10 11:06:45;;;;;;;20.1;18.1;;;;;;;17.96;100;94690.75;;;;
2020/06/10 11:07:59;;;;;;;19.85;17.8;;;;;;;17.45;100;94698.02;;;;
2020/06/10 11:10:11;;;;;;;19.85;17.8;;;;;;;17.45;100;94698.02;;;;
2020/06/10 11:11:18;;;;;;;19.85;17.8;;;;;;;17.45;100;94698.02;;;;
2020/06/10 11:12:23;;;;;;;19.85;17.8;;;;;;;17.45;100;94698.02;;;;
2020/06/10 11:18:11;;;;;;;18.15;16.35;;;;;;;17.72;100;94696.7;;;;
2020/06/10 11:29:46;;;;;;;14.7;13.3;;;;;;;18.09;100;94697.8;;;;
2020/06/10 11:30:52;;;;;;;14.7;13.3;;;;;;;18.09;100;94697.8;;;;
2020/06/10 11:31:59;;;;;;;14.7;13.3;;;;;;;18.09;100;94697.8;;;;
2020/06/10 11:33:02;;;;;;;14.7;13.3;;;;;;;18.09;100;94697.8;;;;
2020/06/10 11:34:07;;;;;;;14.7;13.3;;;;;;;18.09;100;94697.8;;;;
2020/06/10 11:35:21;;;;;;;14.7;13.3;;;;;;;18.09;100;94697.8;;;;
2020/06/10 11:41:45;;;;;;;13.3;12.1;;;;;;;18.37;99.08008;94693.11;;;;
2020/06/10 11:42:53;;;;;;;13.3;12.1;;;;;;;18.37;99.08008;94693.11;;;;
2020/06/10 11:44:31;;;;;;;13.3;12.1;;;;;;;18.37;99.08008;94693.11;;;;
2020/06/10 11:45:45;;;;;;;13.3;12.1;;;;;;;18.37;99.08008;94693.11;;;;
2020/06/10 11:46:55;;;;;;;13.3;12.1;;;;;;;18.37;99.08008;94693.11;;;;
2020/06/10 11:48:03;;;;;;;13.3;12.1;;;;;;;18.37;99.08008;94693.11;;;;
2020/06/10 11:49:10;;;;;;;13.3;12.1;;;;;;;18.37;99.08008;94693.11;;;;
2020/06/10 11:50:16;;;;;;;14.85;13.55;;;;;;;18.29;98.51172;94687.38;;;;
2020/06/10 11:51:21;;;;;;;14.85;13.55;;;;;;;18.29;98.51172;94687.38;;;;
2020/06/10 11:52:22;;;;;;;14.85;13.55;;;;;;;18.29;98.51172;94687.38;;;;
2020/06/10 11:53:31;;;;;;;14.85;13.55;;;;;;;18.29;98.51172;94687.38;;;;
2020/06/10 11:54:47;;;;;;;14.85;13.55;;;;;;;18.29;98.51172;94687.38;;;;
2020/06/10 11:55:56;;;;;;;14.85;13.55;;;;;;;18.29;98.51172;94687.38;;;;
2020/06/10 11:57:05;;;;;;;14.85;13.55;;;;;;;18.29;98.51172;94687.38;;;;
2020/06/10 11:58:17;;;;;;;14.85;13.55;;;;;;;18.29;98.51172;94687.38;;;;
2020/06/10 11:59:25;;;;;;;14.85;13.55;;;;;;;18.29;98.51172;94687.38;;;;
2020/06/10 12:00:36;;;;;;;17.2;15.6;;;;;;;17.85;98.27441;94686.55;;;;
2020/06/10 12:01:45;;;;;;;17.2;15.6;;;;;;;17.85;98.27441;94686.55;;;;
2020/06/10 12:06:19;;;;;;;17.2;15.6;;;;;;;17.85;98.27441;94686.55;;;;
2020/06/10 12:12:26;;;;;;;18.65;16.85;;;;;;;17.21;98.14355;94684.8;;;;
2020/06/10 12:13:43;;;;;;;18.65;16.85;;;;;;;17.21;98.14355;94684.8;;;;
2020/06/10 12:15:47;;;;;;;18.65;16.85;;;;;;;17.21;98.14355;94684.8;;;;
2020/06/10 12:17:56;;;;;;;18.65;16.85;;;;;;;17.21;98.14355;94684.8;;;;
2020/06/10 12:19:10;;;;;;;18.65;16.85;;;;;;;17.21;98.14355;94684.8;;;;
2020/06/10 12:25:29;;;;;;;19.9;17.95;;;;;;;16.66;98.8418;94693.98;;;;
2020/06/10 12:26:43;;;;;;;19.9;17.95;;;;;;;16.66;98.8418;94693.98;;;;
2020/06/10 12:27:54;;;;;;;19.9;17.95;;;;;;;16.66;98.8418;94693.98;;;;
2020/06/10 12:29:02;;;;;;;19.9;17.95;;;;;;;16.66;98.8418;94693.98;;;;
2020/06/10 12:30:10;;;;;;;19.9;17.95;;;;;;;16.66;98.8418;94693.98;;;;
2020/06/10 12:31:21;;;;;;;19.9;17.95;;;;;;;16.66;98.8418;94693.98;;;;
2020/06/10 12:32:29;;;;;;;20.75;18.6;;;;;;;16.21;99.76367;94674.88;;;;
2020/06/10 12:33:37;;;;;;;20.75;18.6;;;;;;;16.21;99.76367;94674.88;;;;
2020/06/10 12:41:01;;;;;;;20.75;18.6;;;;;;;16.21;99.76367;94674.88;;;;
2020/06/10 12:42:12;;;;;;;20.75;18.6;;;;;;;16.21;99.76367;94674.88;;;;
2020/06/10 12:43:27;;;;;;;20.55;18.65;;;;;;;15.76;100;94684.78;;;;
2020/06/10 12:44:35;;;;;;;20.55;18.65;;;;;;;15.76;100;94684.78;;;;
2020/06/10 12:45:44;;;;;;;20.55;18.65;;;;;;;15.76;100;94684.78;;;;
2020/06/10 12:52:04;;;;;;;20.55;18.65;;;;;;;15.76;100;94684.78;;;;
2020/06/10 12:53:13;;;;;;;20.15;18.15;;;;;;;15.62;100;94679.96;;;;